sensor_id;sensor_type;location;lat;lon;timestamp;P1;durP1;ratioP1;P2;durP2;ratioP2
31652;SDS011;18261;53.648;9.910;2023-04-03T00:02:18;15.35;;;2.90;;
31652;SDS011;18261;53.648;9.910;2023-04-03T00:04:44;12.40;;;2.97;;
31652;SDS011;18261;53.648;9.910;2023-04-03T00:07:10;14.05;;;3.00;;
31652;SDS011;18261;53.648;9.910;2023-04-03T00:09:37;12.40;;;3.17;;
31652;SDS011;18261;53.648;9.910;2023-04-03T00:12:03;16.13;;;3.28;;
31652;SDS011;18261;53.648;9.910;2023-04-03T00:14:29;15.38;;;3.00;;
31652;SDS011;18261;53.648;9.910;2023-04-03T00:16:55;16.85;;;3.28;;
31652;SDS011;18261;53.648;9.910;2023-04-03T00:19:21;12.60;;;2.85;;
31652;SDS011;18261;53.648;9.910;2023-04-03T00:21:47;11.27;;;3.42;;
31652;SDS011;18261;53.648;9.910;2023-04-03T00:24:13;13.65;;;2.92;;
31652;SDS011;18261;53.648;9.910;2023-04-03T00:26:39;11.77;;;3.60;;
31652;SDS011;18261;53.648;9.910;2023-04-03T00:29:05;12.57;;;2.92;;
31652;SDS011;18261;53.648;9.910;2023-04-03T00:31:31;11.77;;;3.10;;
31652;SDS011;18261;53.648;9.910;2023-04-03T00:33:57;8.70;;;2.90;;
31652;SDS011;18261;53.648;9.910;2023-04-03T00:36:23;9.00;;;2.55;;
31652;SDS011;18261;53.648;9.910;2023-04-03T00:38:50;13.05;;;2.95;;
31652;SDS011;18261;53.648;9.910;2023-04-03T00:41:16;11.02;;;2.80;;
31652;SDS011;18261;53.648;9.910;2023-04-03T00:43:42;10.65;;;3.13;;
31652;SDS011;18261;53.648;9.910;2023-04-03T00:46:08;16.42;;;3.10;;
31652;SDS011;18261;53.648;9.910;2023-04-03T00:51:06;12.20;;;3.33;;
31652;SDS011;18261;53.648;9.910;2023-04-03T00:53:54;14.25;;;3.22;;
31652;SDS011;18261;53.648;9.910;2023-04-03T00:56:19;15.07;;;3.17;;
31652;SDS011;18261;53.648;9.910;2023-04-03T00:58:54;12.65;;;3.42;;
31652;SDS011;18261;53.648;9.910;2023-04-03T01:01:24;8.57;;;2.90;;
31652;SDS011;18261;53.648;9.910;2023-04-03T01:03:50;15.75;;;3.22;;
31652;SDS011;18261;53.648;9.910;2023-04-03T01:06:17;11.90;;;3.17;;
31652;SDS011;18261;53.648;9.910;2023-04-03T01:08:46;7.90;;;2.60;;
31652;SDS011;18261;53.648;9.910;2023-04-03T01:11:13;11.65;;;3.30;;
31652;SDS011;18261;53.648;9.910;2023-04-03T01:13:39;12.48;;;3.28;;
31652;SDS011;18261;53.648;9.910;2023-04-03T01:16:06;11.05;;;3.17;;
31652;SDS011;18261;53.648;9.910;2023-04-03T01:18:33;14.25;;;3.45;;
31652;SDS011;18261;53.648;9.910;2023-04-03T01:23:48;12.88;;;3.30;;
31652;SDS011;18261;53.648;9.910;2023-04-03T01:26:15;8.18;;;2.63;;
31652;SDS011;18261;53.648;9.910;2023-04-03T01:28:41;10.77;;;2.95;;
31652;SDS011;18261;53.648;9.910;2023-04-03T01:31:15;16.08;;;3.45;;
31652;SDS011;18261;53.648;9.910;2023-04-03T01:33:44;16.10;;;3.75;;
31652;SDS011;18261;53.648;9.910;2023-04-03T01:36:14;11.05;;;3.03;;
31652;SDS011;18261;53.648;9.910;2023-04-03T01:38:40;15.25;;;3.10;;
31652;SDS011;18261;53.648;9.910;2023-04-03T01:41:07;12.00;;;3.30;;
31652;SDS011;18261;53.648;9.910;2023-04-03T01:43:32;14.98;;;3.05;;
31652;SDS011;18261;53.648;9.910;2023-04-03T01:45:58;12.93;;;2.92;;
31652;SDS011;18261;53.648;9.910;2023-04-03T01:48:24;15.45;;;3.17;;
31652;SDS011;18261;53.648;9.910;2023-04-03T01:50:50;11.15;;;3.03;;
31652;SDS011;18261;53.648;9.910;2023-04-03T01:53:16;9.75;;;2.95;;
31652;SDS011;18261;53.648;9.910;2023-04-03T01:55:42;19.08;;;3.53;;
31652;SDS011;18261;53.648;9.910;2023-04-03T01:58:08;14.35;;;3.60;;
31652;SDS011;18261;53.648;9.910;2023-04-03T02:00:34;15.13;;;3.10;;
31652;SDS011;18261;53.648;9.910;2023-04-03T02:03:01;14.43;;;3.38;;
31652;SDS011;18261;53.648;9.910;2023-04-03T02:05:27;12.60;;;3.28;;
31652;SDS011;18261;53.648;9.910;2023-04-03T02:07:53;12.88;;;3.42;;
31652;SDS011;18261;53.648;9.910;2023-04-03T02:10:19;13.38;;;3.45;;
31652;SDS011;18261;53.648;9.910;2023-04-03T02:12:45;14.07;;;3.67;;
31652;SDS011;18261;53.648;9.910;2023-04-03T02:15:11;14.73;;;3.38;;
31652;SDS011;18261;53.648;9.910;2023-04-03T02:17:37;20.25;;;4.10;;
31652;SDS011;18261;53.648;9.910;2023-04-03T02:20:03;16.45;;;3.53;;
31652;SDS011;18261;53.648;9.910;2023-04-03T02:22:29;12.93;;;3.35;;
31652;SDS011;18261;53.648;9.910;2023-04-03T02:24:55;12.55;;;3.53;;
31652;SDS011;18261;53.648;9.910;2023-04-03T02:27:21;9.82;;;2.92;;
31652;SDS011;18261;53.648;9.910;2023-04-03T02:29:47;12.52;;;3.38;;
31652;SDS011;18261;53.648;9.910;2023-04-03T02:32:13;14.50;;;3.58;;
31652;SDS011;18261;53.648;9.910;2023-04-03T02:34:39;11.43;;;3.25;;
31652;SDS011;18261;53.648;9.910;2023-04-03T02:37:05;13.43;;;3.35;;
31652;SDS011;18261;53.648;9.910;2023-04-03T02:39:31;13.45;;;4.20;;
31652;SDS011;18261;53.648;9.910;2023-04-03T02:41:57;10.27;;;3.55;;
31652;SDS011;18261;53.648;9.910;2023-04-03T02:44:23;10.98;;;3.25;;
31652;SDS011;18261;53.648;9.910;2023-04-03T02:46:49;11.48;;;3.60;;
31652;SDS011;18261;53.648;9.910;2023-04-03T02:49:15;12.82;;;3.80;;
31652;SDS011;18261;53.648;9.910;2023-04-03T02:51:41;13.77;;;4.68;;
31652;SDS011;18261;53.648;9.910;2023-04-03T02:54:07;17.52;;;4.45;;
31652;SDS011;18261;53.648;9.910;2023-04-03T02:56:33;15.73;;;3.95;;
31652;SDS011;18261;53.648;9.910;2023-04-03T02:59:00;17.90;;;4.13;;
31652;SDS011;18261;53.648;9.910;2023-04-03T03:01:25;13.00;;;3.47;;
31652;SDS011;18261;53.648;9.910;2023-04-03T03:03:56;18.13;;;5.90;;
31652;SDS011;18261;53.648;9.910;2023-04-03T03:06:22;11.48;;;3.58;;
31652;SDS011;18261;53.648;9.910;2023-04-03T03:08:49;17.65;;;6.05;;
31652;SDS011;18261;53.648;9.910;2023-04-03T03:11:15;15.52;;;5.75;;
31652;SDS011;18261;53.648;9.910;2023-04-03T03:13:41;20.13;;;4.50;;
31652;SDS011;18261;53.648;9.910;2023-04-03T03:16:07;16.10;;;4.15;;
31652;SDS011;18261;53.648;9.910;2023-04-03T03:18:33;13.20;;;3.47;;
31652;SDS011;18261;53.648;9.910;2023-04-03T03:20:59;16.80;;;3.70;;
31652;SDS011;18261;53.648;9.910;2023-04-03T03:23:26;23.30;;;6.10;;
31652;SDS011;18261;53.648;9.910;2023-04-03T03:25:56;21.60;;;7.00;;
31652;SDS011;18261;53.648;9.910;2023-04-03T03:28:22;18.05;;;5.10;;
31652;SDS011;18261;53.648;9.910;2023-04-03T03:30:48;19.92;;;4.63;;
31652;SDS011;18261;53.648;9.910;2023-04-03T03:33:14;17.58;;;5.20;;
31652;SDS011;18261;53.648;9.910;2023-04-03T03:35:42;18.50;;;4.45;;
31652;SDS011;18261;53.648;9.910;2023-04-03T03:38:08;18.35;;;4.50;;
31652;SDS011;18261;53.648;9.910;2023-04-03T03:40:34;19.42;;;4.22;;
31652;SDS011;18261;53.648;9.910;2023-04-03T03:43:00;23.02;;;4.43;;
31652;SDS011;18261;53.648;9.910;2023-04-03T03:45:26;14.20;;;3.83;;
31652;SDS011;18261;53.648;9.910;2023-04-03T03:47:52;16.05;;;4.80;;
31652;SDS011;18261;53.648;9.910;2023-04-03T03:50:18;16.48;;;5.45;;
31652;SDS011;18261;53.648;9.910;2023-04-03T03:52:44;16.05;;;6.10;;
31652;SDS011;18261;53.648;9.910;2023-04-03T03:55:10;15.05;;;5.65;;
31652;SDS011;18261;53.648;9.910;2023-04-03T03:57:36;16.73;;;5.10;;
31652;SDS011;18261;53.648;9.910;2023-04-03T04:00:02;21.67;;;4.68;;
31652;SDS011;18261;53.648;9.910;2023-04-03T04:02:29;17.25;;;5.25;;
31652;SDS011;18261;53.648;9.910;2023-04-03T04:04:55;92.68;;;36.75;;
31652;SDS011;18261;53.648;9.910;2023-04-03T04:07:21;46.20;;;17.67;;
31652;SDS011;18261;53.648;9.910;2023-04-03T04:09:47;17.80;;;7.20;;
31652;SDS011;18261;53.648;9.910;2023-04-03T04:12:13;19.23;;;6.53;;
31652;SDS011;18261;53.648;9.910;2023-04-03T04:14:39;21.17;;;7.50;;
31652;SDS011;18261;53.648;9.910;2023-04-03T04:17:05;27.67;;;8.68;;
31652;SDS011;18261;53.648;9.910;2023-04-03T04:19:31;28.77;;;5.22;;
31652;SDS011;18261;53.648;9.910;2023-04-03T04:21:58;15.57;;;4.93;;
31652;SDS011;18261;53.648;9.910;2023-04-03T04:24:24;14.90;;;4.55;;
31652;SDS011;18261;53.648;9.910;2023-04-03T04:26:50;19.98;;;4.30;;
31652;SDS011;18261;53.648;9.910;2023-04-03T04:29:16;15.85;;;5.63;;
31652;SDS011;18261;53.648;9.910;2023-04-03T04:31:42;19.35;;;5.95;;
31652;SDS011;18261;53.648;9.910;2023-04-03T04:34:08;23.08;;;6.65;;
31652;SDS011;18261;53.648;9.910;2023-04-03T04:36:34;20.05;;;5.05;;
31652;SDS011;18261;53.648;9.910;2023-04-03T04:39:00;16.30;;;5.65;;
31652;SDS011;18261;53.648;9.910;2023-04-03T04:41:26;17.77;;;5.78;;
31652;SDS011;18261;53.648;9.910;2023-04-03T04:43:52;19.63;;;4.60;;
31652;SDS011;18261;53.648;9.910;2023-04-03T04:46:18;16.58;;;4.07;;
31652;SDS011;18261;53.648;9.910;2023-04-03T04:48:44;23.15;;;4.60;;
31652;SDS011;18261;53.648;9.910;2023-04-03T04:51:10;17.73;;;4.82;;
31652;SDS011;18261;53.648;9.910;2023-04-03T04:53:37;21.05;;;4.85;;
31652;SDS011;18261;53.648;9.910;2023-04-03T04:56:03;21.10;;;5.32;;
31652;SDS011;18261;53.648;9.910;2023-04-03T04:58:29;12.27;;;4.70;;
31652;SDS011;18261;53.648;9.910;2023-04-03T05:01:02;22.15;;;5.18;;
31652;SDS011;18261;53.648;9.910;2023-04-03T05:03:28;17.55;;;4.78;;
31652;SDS011;18261;53.648;9.910;2023-04-03T05:05:54;22.23;;;5.88;;
31652;SDS011;18261;53.648;9.910;2023-04-03T05:08:20;13.93;;;5.22;;
31652;SDS011;18261;53.648;9.910;2023-04-03T05:10:46;18.05;;;5.03;;
31652;SDS011;18261;53.648;9.910;2023-04-03T05:13:12;20.25;;;6.15;;
31652;SDS011;18261;53.648;9.910;2023-04-03T05:15:38;15.90;;;4.90;;
31652;SDS011;18261;53.648;9.910;2023-04-03T05:18:04;23.35;;;4.60;;
31652;SDS011;18261;53.648;9.910;2023-04-03T05:20:31;20.20;;;5.82;;
31652;SDS011;18261;53.648;9.910;2023-04-03T05:22:57;31.58;;;14.40;;
31652;SDS011;18261;53.648;9.910;2023-04-03T05:25:23;16.65;;;6.40;;
31652;SDS011;18261;53.648;9.910;2023-04-03T05:27:49;16.05;;;6.60;;
31652;SDS011;18261;53.648;9.910;2023-04-03T05:30:16;19.73;;;6.55;;
31652;SDS011;18261;53.648;9.910;2023-04-03T05:32:42;28.52;;;9.80;;
31652;SDS011;18261;53.648;9.910;2023-04-03T05:35:08;23.10;;;8.85;;
31652;SDS011;18261;53.648;9.910;2023-04-03T05:37:34;15.82;;;6.70;;
31652;SDS011;18261;53.648;9.910;2023-04-03T05:40:00;19.98;;;6.07;;
31652;SDS011;18261;53.648;9.910;2023-04-03T05:42:27;15.43;;;5.32;;
31652;SDS011;18261;53.648;9.910;2023-04-03T05:44:53;19.60;;;6.45;;
31652;SDS011;18261;53.648;9.910;2023-04-03T05:47:19;19.42;;;5.50;;
31652;SDS011;18261;53.648;9.910;2023-04-03T05:49:45;18.15;;;5.40;;
31652;SDS011;18261;53.648;9.910;2023-04-03T05:52:13;28.05;;;6.28;;
31652;SDS011;18261;53.648;9.910;2023-04-03T05:54:42;23.35;;;6.45;;
31652;SDS011;18261;53.648;9.910;2023-04-03T05:57:09;22.50;;;8.25;;
31652;SDS011;18261;53.648;9.910;2023-04-03T05:59:36;24.35;;;6.70;;
31652;SDS011;18261;53.648;9.910;2023-04-03T06:02:02;20.25;;;6.10;;
31652;SDS011;18261;53.648;9.910;2023-04-03T06:04:28;24.10;;;7.82;;
31652;SDS011;18261;53.648;9.910;2023-04-03T06:06:56;25.75;;;7.32;;
31652;SDS011;18261;53.648;9.910;2023-04-03T06:09:26;23.15;;;8.15;;
31652;SDS011;18261;53.648;9.910;2023-04-03T06:11:54;21.75;;;7.28;;
31652;SDS011;18261;53.648;9.910;2023-04-03T06:14:20;26.25;;;5.40;;
31652;SDS011;18261;53.648;9.910;2023-04-03T06:16:46;27.00;;;5.43;;
31652;SDS011;18261;53.648;9.910;2023-04-03T06:19:13;27.80;;;5.00;;
31652;SDS011;18261;53.648;9.910;2023-04-03T06:21:39;19.95;;;6.68;;
31652;SDS011;18261;53.648;9.910;2023-04-03T06:24:05;14.82;;;4.90;;
31652;SDS011;18261;53.648;9.910;2023-04-03T06:26:31;18.60;;;5.32;;
31652;SDS011;18261;53.648;9.910;2023-04-03T06:28:58;21.40;;;4.65;;
31652;SDS011;18261;53.648;9.910;2023-04-03T06:31:24;16.30;;;4.50;;
31652;SDS011;18261;53.648;9.910;2023-04-03T06:33:50;15.77;;;4.90;;
31652;SDS011;18261;53.648;9.910;2023-04-03T06:36:17;14.93;;;4.75;;
31652;SDS011;18261;53.648;9.910;2023-04-03T06:38:47;28.90;;;11.93;;
31652;SDS011;18261;53.648;9.910;2023-04-03T06:41:13;22.52;;;5.90;;
31652;SDS011;18261;53.648;9.910;2023-04-03T06:43:39;22.33;;;4.85;;
31652;SDS011;18261;53.648;9.910;2023-04-03T06:46:05;19.15;;;4.80;;
31652;SDS011;18261;53.648;9.910;2023-04-03T06:48:31;23.02;;;4.88;;
31652;SDS011;18261;53.648;9.910;2023-04-03T06:50:57;11.80;;;3.78;;
31652;SDS011;18261;53.648;9.910;2023-04-03T06:53:23;13.35;;;4.53;;
31652;SDS011;18261;53.648;9.910;2023-04-03T06:55:50;27.13;;;5.00;;
31652;SDS011;18261;53.648;9.910;2023-04-03T06:58:16;17.92;;;4.70;;
31652;SDS011;18261;53.648;9.910;2023-04-03T07:00:42;12.52;;;3.92;;
31652;SDS011;18261;53.648;9.910;2023-04-03T07:03:08;17.35;;;3.75;;
31652;SDS011;18261;53.648;9.910;2023-04-03T07:05:34;19.60;;;4.00;;
31652;SDS011;18261;53.648;9.910;2023-04-03T07:08:00;14.10;;;3.85;;
31652;SDS011;18261;53.648;9.910;2023-04-03T07:10:26;16.50;;;4.13;;
31652;SDS011;18261;53.648;9.910;2023-04-03T07:12:52;16.25;;;3.97;;
31652;SDS011;18261;53.648;9.910;2023-04-03T07:15:18;16.08;;;3.45;;
31652;SDS011;18261;53.648;9.910;2023-04-03T07:17:44;16.80;;;3.58;;
31652;SDS011;18261;53.648;9.910;2023-04-03T07:20:11;13.00;;;3.80;;
31652;SDS011;18261;53.648;9.910;2023-04-03T07:22:38;12.23;;;3.58;;
31652;SDS011;18261;53.648;9.910;2023-04-03T07:25:04;15.90;;;3.78;;
31652;SDS011;18261;53.648;9.910;2023-04-03T07:27:32;14.50;;;5.13;;
31652;SDS011;18261;53.648;9.910;2023-04-03T07:29:58;17.13;;;5.00;;
31652;SDS011;18261;53.648;9.910;2023-04-03T07:32:24;13.27;;;2.88;;
31652;SDS011;18261;53.648;9.910;2023-04-03T07:34:50;15.70;;;2.92;;
31652;SDS011;18261;53.648;9.910;2023-04-03T07:37:16;17.00;;;3.10;;
31652;SDS011;18261;53.648;9.910;2023-04-03T07:39:43;17.90;;;4.50;;
31652;SDS011;18261;53.648;9.910;2023-04-03T07:42:09;11.07;;;2.10;;
31652;SDS011;18261;53.648;9.910;2023-04-03T07:44:37;18.27;;;2.20;;
31652;SDS011;18261;53.648;9.910;2023-04-03T07:47:03;6.60;;;1.95;;
31652;SDS011;18261;53.648;9.910;2023-04-03T07:49:29;13.88;;;4.28;;
31652;SDS011;18261;53.648;9.910;2023-04-03T07:51:55;10.20;;;2.22;;
31652;SDS011;18261;53.648;9.910;2023-04-03T07:54:21;11.63;;;2.22;;
31652;SDS011;18261;53.648;9.910;2023-04-03T07:56:47;8.05;;;1.85;;
31652;SDS011;18261;53.648;9.910;2023-04-03T07:59:13;15.18;;;2.20;;
31652;SDS011;18261;53.648;9.910;2023-04-03T08:01:39;8.48;;;1.60;;
31652;SDS011;18261;53.648;9.910;2023-04-03T08:04:06;6.25;;;2.00;;
31652;SDS011;18261;53.648;9.910;2023-04-03T08:06:32;6.72;;;1.90;;
31652;SDS011;18261;53.648;9.910;2023-04-03T08:09:01;7.53;;;1.52;;
31652;SDS011;18261;53.648;9.910;2023-04-03T08:11:28;10.32;;;2.05;;
31652;SDS011;18261;53.648;9.910;2023-04-03T08:13:56;12.75;;;2.20;;
31652;SDS011;18261;53.648;9.910;2023-04-03T08:16:22;11.48;;;3.40;;
31652;SDS011;18261;53.648;9.910;2023-04-03T08:18:51;27.00;;;2.28;;
31652;SDS011;18261;53.648;9.910;2023-04-03T08:21:17;13.32;;;2.22;;
31652;SDS011;18261;53.648;9.910;2023-04-03T08:23:43;11.25;;;2.30;;
31652;SDS011;18261;53.648;9.910;2023-04-03T08:26:10;9.52;;;2.03;;
31652;SDS011;18261;53.648;9.910;2023-04-03T08:28:37;5.53;;;1.80;;
31652;SDS011;18261;53.648;9.910;2023-04-03T08:31:04;8.40;;;1.85;;
31652;SDS011;18261;53.648;9.910;2023-04-03T08:33:31;9.52;;;2.10;;
31652;SDS011;18261;53.648;9.910;2023-04-03T08:35:57;7.82;;;2.13;;
31652;SDS011;18261;53.648;9.910;2023-04-03T08:38:23;10.63;;;2.17;;
31652;SDS011;18261;53.648;9.910;2023-04-03T08:41:36;8.98;;;2.10;;
31652;SDS011;18261;53.648;9.910;2023-04-03T08:46:23;10.57;;;1.85;;
31652;SDS011;18261;53.648;9.910;2023-04-03T08:48:50;13.18;;;1.92;;
31652;SDS011;18261;53.648;9.910;2023-04-03T08:51:18;9.40;;;1.88;;
31652;SDS011;18261;53.648;9.910;2023-04-03T08:53:56;14.20;;;2.17;;
31652;SDS011;18261;53.648;9.910;2023-04-03T08:56:22;8.82;;;1.77;;
31652;SDS011;18261;53.648;9.910;2023-04-03T08:58:52;6.47;;;1.77;;
31652;SDS011;18261;53.648;9.910;2023-04-03T09:01:23;9.35;;;1.88;;
31652;SDS011;18261;53.648;9.910;2023-04-03T09:03:51;9.00;;;1.50;;
31652;SDS011;18261;53.648;9.910;2023-04-03T09:06:20;8.55;;;2.33;;
31652;SDS011;18261;53.648;9.910;2023-04-03T09:09:04;7.93;;;1.90;;
31652;SDS011;18261;53.648;9.910;2023-04-03T09:14:13;8.48;;;2.28;;
31652;SDS011;18261;53.648;9.910;2023-04-03T09:16:55;7.30;;;1.80;;
31652;SDS011;18261;53.648;9.910;2023-04-03T09:21:48;6.22;;;1.85;;
31652;SDS011;18261;53.648;9.910;2023-04-03T09:24:15;8.30;;;1.67;;
31652;SDS011;18261;53.648;9.910;2023-04-03T09:26:43;8.15;;;1.45;;
31652;SDS011;18261;53.648;9.910;2023-04-03T09:29:14;4.65;;;1.30;;
31652;SDS011;18261;53.648;9.910;2023-04-03T09:31:42;5.13;;;2.00;;
31652;SDS011;18261;53.648;9.910;2023-04-03T09:34:19;6.30;;;1.48;;
31652;SDS011;18261;53.648;9.910;2023-04-03T09:36:48;9.07;;;1.90;;
31652;SDS011;18261;53.648;9.910;2023-04-03T09:39:16;6.90;;;1.52;;
31652;SDS011;18261;53.648;9.910;2023-04-03T09:41:44;9.90;;;1.80;;
31652;SDS011;18261;53.648;9.910;2023-04-03T09:44:21;7.28;;;1.80;;
31652;SDS011;18261;53.648;9.910;2023-04-03T09:46:48;5.50;;;1.48;;
31652;SDS011;18261;53.648;9.910;2023-04-03T09:49:14;4.97;;;2.13;;
31652;SDS011;18261;53.648;9.910;2023-04-03T09:51:40;10.50;;;1.73;;
31652;SDS011;18261;53.648;9.910;2023-04-03T09:59:18;4.93;;;1.85;;
31652;SDS011;18261;53.648;9.910;2023-04-03T10:01:58;7.47;;;2.08;;
31652;SDS011;18261;53.648;9.910;2023-04-03T10:04:24;4.40;;;1.63;;
31652;SDS011;18261;53.648;9.910;2023-04-03T10:06:51;7.03;;;2.10;;
31652;SDS011;18261;53.648;9.910;2023-04-03T10:12:06;8.02;;;2.17;;
31652;SDS011;18261;53.648;9.910;2023-04-03T10:14:31;7.03;;;1.20;;
31652;SDS011;18261;53.648;9.910;2023-04-03T10:19:46;7.13;;;2.00;;
31652;SDS011;18261;53.648;9.910;2023-04-03T10:22:21;5.85;;;1.30;;
31652;SDS011;18261;53.648;9.910;2023-04-03T10:28:00;6.68;;;1.95;;
31652;SDS011;18261;53.648;9.910;2023-04-03T10:40:46;5.97;;;1.58;;
31652;SDS011;18261;53.648;9.910;2023-04-03T10:43:10;10.60;;;2.30;;
31652;SDS011;18261;53.648;9.910;2023-04-03T10:59:32;8.60;;;1.58;;
31652;SDS011;18261;53.648;9.910;2023-04-03T11:02:04;7.53;;;1.73;;
31652;SDS011;18261;53.648;9.910;2023-04-03T11:04:34;8.07;;;2.13;;
31652;SDS011;18261;53.648;9.910;2023-04-03T11:09:30;9.88;;;1.70;;
31652;SDS011;18261;53.648;9.910;2023-04-03T11:12:01;4.55;;;1.50;;
31652;SDS011;18261;53.648;9.910;2023-04-03T11:14:30;6.80;;;1.73;;
31652;SDS011;18261;53.648;9.910;2023-04-03T11:17:10;6.45;;;1.88;;
31652;SDS011;18261;53.648;9.910;2023-04-03T11:22:32;5.85;;;2.00;;
31652;SDS011;18261;53.648;9.910;2023-04-03T11:27:40;5.07;;;1.60;;
31652;SDS011;18261;53.648;9.910;2023-04-03T11:30:09;6.10;;;2.05;;
31652;SDS011;18261;53.648;9.910;2023-04-03T11:35:05;4.88;;;1.55;;
31652;SDS011;18261;53.648;9.910;2023-04-03T11:37:37;6.07;;;1.58;;
31652;SDS011;18261;53.648;9.910;2023-04-03T11:40:06;7.32;;;1.60;;
31652;SDS011;18261;53.648;9.910;2023-04-03T11:42:36;5.20;;;1.70;;
31652;SDS011;18261;53.648;9.910;2023-04-03T11:47:48;7.07;;;1.58;;
31652;SDS011;18261;53.648;9.910;2023-04-03T11:50:57;4.55;;;1.52;;
31652;SDS011;18261;53.648;9.910;2023-04-03T12:05:50;6.00;;;1.60;;
31652;SDS011;18261;53.648;9.910;2023-04-03T12:16:06;3.28;;;1.33;;
31652;SDS011;18261;53.648;9.910;2023-04-03T12:21:20;7.00;;;1.55;;
31652;SDS011;18261;53.648;9.910;2023-04-03T12:24:30;6.55;;;1.42;;
31652;SDS011;18261;53.648;9.910;2023-04-03T12:26:38;5.60;;;1.75;;
31652;SDS011;18261;53.648;9.910;2023-04-03T12:29:27;8.13;;;1.48;;
31652;SDS011;18261;53.648;9.910;2023-04-03T12:34:39;7.65;;;2.00;;
31652;SDS011;18261;53.648;9.910;2023-04-03T12:37:09;5.78;;;1.40;;
31652;SDS011;18261;53.648;9.910;2023-04-03T12:39:54;4.35;;;1.75;;
31652;SDS011;18261;53.648;9.910;2023-04-03T12:45:22;4.72;;;1.73;;
31652;SDS011;18261;53.648;9.910;2023-04-03T12:47:51;4.13;;;1.52;;
31652;SDS011;18261;53.648;9.910;2023-04-03T12:50:20;4.28;;;1.58;;
31652;SDS011;18261;53.648;9.910;2023-04-03T12:52:56;4.43;;;1.30;;
31652;SDS011;18261;53.648;9.910;2023-04-03T12:55:24;6.10;;;1.70;;
31652;SDS011;18261;53.648;9.910;2023-04-03T12:57:51;7.22;;;1.70;;
31652;SDS011;18261;53.648;9.910;2023-04-03T13:02:55;3.33;;;1.38;;
31652;SDS011;18261;53.648;9.910;2023-04-03T13:05:22;5.85;;;1.67;;
31652;SDS011;18261;53.648;9.910;2023-04-03T13:07:49;6.20;;;1.38;;
31652;SDS011;18261;53.648;9.910;2023-04-03T13:10:51;5.63;;;1.40;;
31652;SDS011;18261;53.648;9.910;2023-04-03T13:13:28;8.00;;;1.65;;
31652;SDS011;18261;53.648;9.910;2023-04-03T13:15:54;5.45;;;1.85;;
31652;SDS011;18261;53.648;9.910;2023-04-03T13:18:21;6.30;;;1.63;;
31652;SDS011;18261;53.648;9.910;2023-04-03T13:20:48;6.55;;;1.40;;
31652;SDS011;18261;53.648;9.910;2023-04-03T13:23:15;5.18;;;1.63;;
31652;SDS011;18261;53.648;9.910;2023-04-03T13:25:43;7.38;;;1.58;;
31652;SDS011;18261;53.648;9.910;2023-04-03T13:28:12;3.72;;;1.27;;
31652;SDS011;18261;53.648;9.910;2023-04-03T13:30:40;6.88;;;1.70;;
31652;SDS011;18261;53.648;9.910;2023-04-03T13:33:20;4.55;;;1.48;;
31652;SDS011;18261;53.648;9.910;2023-04-03T13:35:48;5.65;;;1.45;;
31652;SDS011;18261;53.648;9.910;2023-04-03T13:38:26;8.10;;;1.95;;
31652;SDS011;18261;53.648;9.910;2023-04-03T13:40:57;5.78;;;1.55;;
31652;SDS011;18261;53.648;9.910;2023-04-03T13:43:26;5.07;;;1.67;;
31652;SDS011;18261;53.648;9.910;2023-04-03T13:46:01;7.25;;;1.40;;
31652;SDS011;18261;53.648;9.910;2023-04-03T13:48:47;7.43;;;1.75;;
31652;SDS011;18261;53.648;9.910;2023-04-03T13:51:24;6.22;;;1.52;;
31652;SDS011;18261;53.648;9.910;2023-04-03T13:59:00;10.30;;;2.20;;
31652;SDS011;18261;53.648;9.910;2023-04-03T14:01:32;5.72;;;1.85;;
31652;SDS011;18261;53.648;9.910;2023-04-03T14:04:00;7.40;;;1.83;;
31652;SDS011;18261;53.648;9.910;2023-04-03T14:06:35;4.38;;;1.55;;
31652;SDS011;18261;53.648;9.910;2023-04-03T14:09:02;5.32;;;1.40;;
31652;SDS011;18261;53.648;9.910;2023-04-03T14:11:29;3.63;;;1.33;;
31652;SDS011;18261;53.648;9.910;2023-04-03T14:13:56;5.97;;;1.73;;
31652;SDS011;18261;53.648;9.910;2023-04-03T14:16:25;7.63;;;1.90;;
31652;SDS011;18261;53.648;9.910;2023-04-03T14:18:52;12.55;;;1.52;;
31652;SDS011;18261;53.648;9.910;2023-04-03T14:21:19;8.80;;;2.20;;
31652;SDS011;18261;53.648;9.910;2023-04-03T14:23:46;7.03;;;1.80;;
31652;SDS011;18261;53.648;9.910;2023-04-03T14:26:13;5.35;;;1.92;;
31652;SDS011;18261;53.648;9.910;2023-04-03T14:28:41;7.57;;;1.98;;
31652;SDS011;18261;53.648;9.910;2023-04-03T14:31:07;9.75;;;2.80;;
31652;SDS011;18261;53.648;9.910;2023-04-03T14:33:33;9.35;;;2.58;;
31652;SDS011;18261;53.648;9.910;2023-04-03T14:36:01;6.50;;;2.10;;
31652;SDS011;18261;53.648;9.910;2023-04-03T14:38:28;8.95;;;2.25;;
31652;SDS011;18261;53.648;9.910;2023-04-03T14:40:55;11.18;;;4.47;;
31652;SDS011;18261;53.648;9.910;2023-04-03T14:43:21;6.72;;;2.17;;
31652;SDS011;18261;53.648;9.910;2023-04-03T14:45:48;6.07;;;1.83;;
31652;SDS011;18261;53.648;9.910;2023-04-03T14:48:15;6.13;;;1.52;;
31652;SDS011;18261;53.648;9.910;2023-04-03T14:50:42;7.90;;;1.95;;
31652;SDS011;18261;53.648;9.910;2023-04-03T14:53:10;6.07;;;1.80;;
31652;SDS011;18261;53.648;9.910;2023-04-03T14:55:37;7.60;;;2.08;;
31652;SDS011;18261;53.648;9.910;2023-04-03T14:58:03;4.95;;;1.60;;
31652;SDS011;18261;53.648;9.910;2023-04-03T15:00:29;7.55;;;1.88;;
31652;SDS011;18261;53.648;9.910;2023-04-03T15:02:55;5.85;;;1.88;;
31652;SDS011;18261;53.648;9.910;2023-04-03T15:05:21;10.48;;;1.90;;
31652;SDS011;18261;53.648;9.910;2023-04-03T15:07:52;9.68;;;2.15;;
31652;SDS011;18261;53.648;9.910;2023-04-03T15:10:26;5.78;;;1.55;;
31652;SDS011;18261;53.648;9.910;2023-04-03T15:12:53;7.00;;;1.98;;
31652;SDS011;18261;53.648;9.910;2023-04-03T15:15:21;4.38;;;1.65;;
31652;SDS011;18261;53.648;9.910;2023-04-03T15:17:50;6.60;;;1.65;;
31652;SDS011;18261;53.648;9.910;2023-04-03T15:20:19;8.18;;;2.20;;
31652;SDS011;18261;53.648;9.910;2023-04-03T15:22:46;16.42;;;2.42;;
31652;SDS011;18261;53.648;9.910;2023-04-03T15:25:12;6.18;;;1.63;;
31652;SDS011;18261;53.648;9.910;2023-04-03T15:27:38;5.28;;;1.83;;
31652;SDS011;18261;53.648;9.910;2023-04-03T15:30:05;5.50;;;2.05;;
31652;SDS011;18261;53.648;9.910;2023-04-03T15:32:32;7.82;;;2.05;;
31652;SDS011;18261;53.648;9.910;2023-04-03T15:34:59;8.73;;;2.33;;
31652;SDS011;18261;53.648;9.910;2023-04-03T15:37:26;7.10;;;1.88;;
31652;SDS011;18261;53.648;9.910;2023-04-03T15:39:52;7.47;;;2.38;;
31652;SDS011;18261;53.648;9.910;2023-04-03T15:42:18;7.03;;;1.95;;
31652;SDS011;18261;53.648;9.910;2023-04-03T15:44:44;8.00;;;2.47;;
31652;SDS011;18261;53.648;9.910;2023-04-03T15:47:10;9.13;;;1.80;;
31652;SDS011;18261;53.648;9.910;2023-04-03T15:49:36;8.52;;;2.08;;
31652;SDS011;18261;53.648;9.910;2023-04-03T15:52:03;7.20;;;2.00;;
31652;SDS011;18261;53.648;9.910;2023-04-03T15:54:29;8.85;;;2.28;;
31652;SDS011;18261;53.648;9.910;2023-04-03T15:56:56;11.05;;;2.20;;
31652;SDS011;18261;53.648;9.910;2023-04-03T15:59:22;6.78;;;2.05;;
31652;SDS011;18261;53.648;9.910;2023-04-03T16:01:48;11.40;;;2.25;;
31652;SDS011;18261;53.648;9.910;2023-04-03T16:04:15;10.68;;;3.55;;
31652;SDS011;18261;53.648;9.910;2023-04-03T16:06:42;12.88;;;2.78;;
31652;SDS011;18261;53.648;9.910;2023-04-03T16:09:08;8.35;;;2.08;;
31652;SDS011;18261;53.648;9.910;2023-04-03T16:11:34;9.43;;;2.35;;
31652;SDS011;18261;53.648;9.910;2023-04-03T16:14:02;8.48;;;2.10;;
31652;SDS011;18261;53.648;9.910;2023-04-03T16:16:28;5.68;;;1.92;;
31652;SDS011;18261;53.648;9.910;2023-04-03T16:18:55;5.65;;;2.00;;
31652;SDS011;18261;53.648;9.910;2023-04-03T16:21:21;4.70;;;1.40;;
31652;SDS011;18261;53.648;9.910;2023-04-03T16:23:47;8.98;;;1.95;;
31652;SDS011;18261;53.648;9.910;2023-04-03T16:26:14;8.55;;;1.90;;